Aérodrome :
LOGIN :

S'inscrire | Disclaimer

   EN    FR    IT 

 










Légende :    VFR   VFR Marginal   IFR   IFR Intensif   IFR Très Intensif
Visi : 
Plafond : 
>= 8 km
>= 3000ft
5 à 8 km
1000 à 3000 ft
1500m à 5 km
500 à 1000 ft
800 à 1500m
200 à 500 ft
< 800m
< 200 ft
Symboles :   Orages  Brouillard  Fortes neiges  Fortes précipitations  Vent > 20 kt
SIGMETs :   Divers  Orages  Givrage  Turbulence  Onde Orograph.  Cendres Volcan.







- Altitude de l'aérodrome : 158 ft
- Code IATA : QAR


EHDL - Deelen Airbase

DERNIER METAR :
  • 230655Z AUTO 18016KT 130V230 9999 OVC180 13/05 Q0996 BLU

METARs EXPIRÉS :
  • 230625Z AUTO 17014KT 120V220 9999 SCT094 OVC100 12/05 Q0996 BLU
  • 230555Z AUTO 17014KT 130V220 9999 OVC089 12/05 Q0996 BLU
  • 230525Z AUTO 17015KT 130V230 9999 FEW077 SCT084 OVC094 12/05 Q0996 BLU
  • 230455Z AUTO 18015KT 130V220 9999 OVC100 11/05 Q0997 BLU
  • 230425Z AUTO 17016KT 130V230 9999 OVC110 11/04 Q0997 BLU

Prévision TAF périmée.
Pas de NOTAMs connus pour ce terrain.



MET'MAP, la Météo Aéronautique d'un coup d'oeil ! - Copyright ORBIFLY Décembre 2007 - Disclaimer

ORBIFLY MET'MAP TEAM :

Programmation & Développement : Alexandra Zaïnal
Conception & Développement : Baudouin d'Aumeries
Co-Programmation & Développement : Marc-Olivier Méhu
Soutien technique & logistique : Manuel Goepfert

Contact : metmap@orbifly.com




SOURCES & CREDITS :

   NOAA